createdAt,value
2018-07-28T00:00:26.036Z,71.53
2018-07-28T00:02:55.352Z,71.76
2018-07-28T00:05:25.445Z,71.05
2018-07-28T00:07:54.829Z,70.20
2018-07-28T00:10:24.689Z,71.95
2018-07-28T00:12:53.876Z,71.33
2018-07-28T00:15:23.021Z,71.12
2018-07-28T00:17:53.329Z,72.20
2018-07-28T00:20:22.523Z,72.44
2018-07-28T00:22:51.743Z,73.11
2018-07-28T00:25:21.923Z,73.37
2018-07-28T00:27:51.097Z,73.08
2018-07-28T00:30:20.313Z,72.02
2018-07-28T00:32:49.683Z,73.04
2018-07-28T00:35:19.643Z,73.71
2018-07-28T00:37:49.170Z,73.33
2018-07-28T00:40:19.275Z,73.11
2018-07-28T00:42:49.017Z,73.48
2018-07-28T00:45:18.240Z,73.09
2018-07-28T00:47:48.032Z,73.81
2018-07-28T00:50:18.297Z,73.38
2018-07-28T00:52:47.429Z,73.89
2018-07-28T00:55:16.570Z,75.51
2018-07-28T00:57:45.691Z,75.17
2018-07-28T01:00:14.801Z,74.75
2018-07-28T01:02:43.909Z,73.81
2018-07-28T01:05:13.021Z,75.13
2018-07-28T01:07:42.109Z,75.37
2018-07-28T01:10:11.225Z,74.29
2018-07-28T01:12:40.361Z,75.16
2018-07-28T01:15:10.914Z,76.00
2018-07-28T01:17:40.313Z,76.15
2018-07-28T01:20:10.957Z,76.02
2018-07-28T01:22:41.065Z,76.67
2018-07-28T01:25:11.381Z,75.33
2018-07-28T01:27:41.369Z,76.13
2018-07-28T01:30:14.640Z,77.03
2018-07-28T01:32:43.770Z,76.84
2018-07-28T01:35:12.896Z,76.85
2018-07-28T01:37:42.078Z,76.80
2018-07-28T01:40:11.266Z,76.94
2018-07-28T01:42:40.380Z,77.31
2018-07-28T01:45:09.940Z,77.00
2018-07-28T01:47:39.136Z,78.24
2018-07-28T01:50:09.260Z,77.01
2018-07-28T01:52:38.399Z,76.76
2018-07-28T01:55:07.476Z,76.92
2018-07-28T01:57:36.629Z,76.58
2018-07-28T02:00:06.661Z,76.95
2018-07-28T02:02:35.864Z,77.74
2018-07-28T02:05:06.300Z,78.58
2018-07-28T02:07:35.620Z,78.60
2018-07-28T02:10:04.981Z,77.44
2018-07-28T02:12:34.194Z,79.15
2018-07-28T02:15:03.366Z,78.43
2018-07-28T02:17:32.557Z,79.60
2018-07-28T02:20:01.744Z,77.47
2018-07-28T02:22:30.956Z,77.80
2018-07-28T02:25:00.066Z,77.76
2018-07-28T02:27:29.246Z,77.77
2018-07-28T02:29:58.356Z,79.00
2018-07-28T02:32:27.732Z,77.71
2018-07-28T02:34:56.961Z,77.51
2018-07-28T02:37:26.106Z,78.10
2018-07-28T02:39:55.342Z,77.65
2018-07-28T02:42:24.547Z,78.17
2018-07-28T02:44:53.730Z,78.45
2018-07-28T02:47:22.830Z,77.59
2018-07-28T02:49:51.957Z,78.28
2018-07-28T02:52:21.042Z,77.05
2018-07-28T02:54:50.239Z,78.26
2018-07-28T02:57:19.361Z,76.63
2018-07-28T02:59:48.539Z,77.04
2018-07-28T03:02:17.653Z,77.50
2018-07-28T03:04:46.829Z,77.36
2018-07-28T03:07:16.017Z,78.86
2018-07-28T03:09:45.122Z,78.28
2018-07-28T03:12:14.275Z,77.33
2018-07-28T03:14:43.409Z,77.04
2018-07-28T03:17:12.557Z,76.11
2018-07-28T03:19:41.771Z,77.21
2018-07-28T03:22:10.869Z,76.88
2018-07-28T03:24:40.029Z,78.52
2018-07-28T03:27:09.159Z,76.85
2018-07-28T03:29:38.321Z,76.59
2018-07-28T03:32:07.597Z,77.41
2018-07-28T03:34:36.857Z,77.56
2018-07-28T03:37:06.324Z,77.32
2018-07-28T03:39:35.464Z,76.28
2018-07-28T03:42:04.605Z,78.03
2018-07-28T03:44:33.728Z,76.71
2018-07-28T03:47:02.892Z,77.61
2018-07-28T03:49:32.025Z,78.05
2018-07-28T03:52:01.184Z,77.80
2018-07-28T03:54:30.342Z,79.20
2018-07-28T03:56:59.506Z,77.15
2018-07-28T03:59:28.621Z,78.71
2018-07-28T04:01:57.740Z,79.02
2018-07-28T04:04:26.941Z,78.75
2018-07-28T04:06:56.228Z,79.06
2018-07-28T04:09:25.398Z,78.57
2018-07-28T04:11:54.492Z,78.87
2018-07-28T04:14:23.963Z,79.37
2018-07-28T04:16:53.066Z,79.36
2018-07-28T04:19:22.183Z,77.38
2018-07-28T04:21:51.313Z,78.29
2018-07-28T04:24:20.477Z,78.03
2018-07-28T04:26:49.737Z,78.71
2018-07-28T04:29:18.865Z,79.15
2018-07-28T04:31:47.961Z,78.81
2018-07-28T04:34:17.172Z,77.82
2018-07-28T04:36:46.241Z,78.24
2018-07-28T04:39:15.441Z,78.87
2018-07-28T04:41:44.501Z,79.05
2018-07-28T04:44:13.698Z,78.19
2018-07-28T04:46:42.863Z,78.00
2018-07-28T04:49:11.976Z,78.46
2018-07-28T04:51:41.185Z,78.11
2018-07-28T04:54:10.484Z,78.29
2018-07-28T04:56:39.680Z,78.33
2018-07-28T04:59:08.810Z,75.75
2018-07-28T05:01:37.910Z,75.59
2018-07-28T05:04:07.010Z,74.68
2018-07-28T05:06:36.106Z,74.98
2018-07-28T05:09:08.022Z,74.84
2018-07-28T05:11:37.141Z,73.59
2018-07-28T05:14:06.232Z,72.76
2018-07-28T05:16:35.370Z,73.09
2018-07-28T05:19:04.900Z,72.76
2018-07-28T05:21:34.042Z,73.46
2018-07-28T05:24:03.253Z,72.78
2018-07-28T05:26:32.365Z,72.32
2018-07-28T05:29:01.478Z,71.95
2018-07-28T05:31:30.650Z,71.10
2018-07-28T05:33:59.804Z,70.69
2018-07-28T05:36:28.966Z,70.31
2018-07-28T05:38:58.125Z,70.92
2018-07-28T05:41:27.342Z,70.02
2018-07-28T05:43:56.444Z,69.39
2018-07-28T05:46:25.658Z,68.62
2018-07-28T05:48:55.078Z,67.87
2018-07-28T05:51:24.446Z,67.16
2018-07-28T05:53:53.660Z,66.74
2018-07-28T05:56:22.792Z,66.59
2018-07-28T05:58:51.861Z,66.64
2018-07-28T06:01:21.042Z,66.46
2018-07-28T06:03:50.174Z,66.13
2018-07-28T06:06:19.348Z,66.40
2018-07-28T06:08:48.477Z,66.67
2018-07-28T06:11:17.673Z,66.35
2018-07-28T06:13:47.119Z,66.30
2018-07-28T06:16:16.645Z,65.76
2018-07-28T06:18:45.918Z,65.71
2018-07-28T06:21:15.115Z,65.65
2018-07-28T06:23:44.275Z,64.24
2018-07-28T06:26:13.429Z,65.35
2018-07-28T06:28:42.609Z,65.57
2018-07-28T06:31:11.697Z,64.55
2018-07-28T06:33:40.814Z,64.17
2018-07-28T06:36:09.874Z,64.91
2018-07-28T06:38:38.999Z,64.20
2018-07-28T06:41:08.227Z,64.08
2018-07-28T06:43:37.347Z,67.68
2018-07-28T06:46:06.467Z,65.73
2018-07-28T06:48:36.335Z,63.31
2018-07-28T06:51:05.580Z,61.59
2018-07-28T06:53:34.720Z,63.09
2018-07-28T06:56:03.960Z,60.83
2018-07-28T06:58:33.152Z,62.37
2018-07-28T07:01:02.323Z,62.17
2018-07-28T07:03:31.634Z,64.69
2018-07-28T07:06:00.692Z,65.45
2018-07-28T07:08:29.822Z,65.36
2018-07-28T07:10:59.012Z,63.66
2018-07-28T07:13:28.136Z,65.26
2018-07-28T07:15:57.256Z,63.32
2018-07-28T07:18:26.473Z,62.37
2018-07-28T07:20:55.563Z,61.43
2018-07-28T07:23:24.685Z,60.33
2018-07-28T07:25:53.787Z,62.58
2018-07-28T07:28:22.951Z,65.79
2018-07-28T07:30:52.053Z,62.68
2018-07-28T07:33:21.254Z,61.09
2018-07-28T07:35:50.321Z,60.83
2018-07-28T07:38:19.461Z,60.74
2018-07-28T07:40:48.688Z,61.59
2018-07-28T07:43:17.781Z,62.29
2018-07-28T07:45:46.901Z,60.23
2018-07-28T07:48:15.977Z,60.91
2018-07-28T07:50:45.123Z,58.40
2018-07-28T07:53:14.441Z,59.60
2018-07-28T07:55:43.657Z,57.88
2018-07-28T07:58:12.720Z,56.41
2018-07-28T08:00:41.938Z,61.14
2018-07-28T08:03:11.145Z,60.31
2018-07-28T08:05:40.228Z,58.31
2018-07-28T08:08:09.405Z,58.02
2018-07-28T08:10:38.580Z,62.39
2018-07-28T08:13:07.720Z,63.03
2018-07-28T08:15:36.848Z,60.57
2018-07-28T08:18:06.426Z,58.39
2018-07-28T08:20:35.660Z,59.35
2018-07-28T08:23:04.790Z,59.17
2018-07-28T08:25:33.928Z,58.62
2018-07-28T08:28:03.000Z,58.55
2018-07-28T08:30:32.124Z,57.66
2018-07-28T08:33:01.301Z,56.79
2018-07-28T08:35:30.430Z,59.29
2018-07-28T08:37:59.569Z,57.78
2018-07-28T08:40:28.844Z,56.63
2018-07-28T08:42:58.172Z,58.73
2018-07-28T08:45:27.356Z,57.55
2018-07-28T08:47:56.589Z,57.39
2018-07-28T08:50:25.884Z,57.26
2018-07-28T08:52:55.099Z,58.72
2018-07-28T08:55:24.186Z,56.50
2018-07-28T08:57:53.336Z,55.87
2018-07-28T09:00:22.574Z,56.13
2018-07-28T09:02:51.796Z,55.79
2018-07-28T09:05:20.938Z,55.78
2018-07-28T09:07:50.052Z,53.88
2018-07-28T09:10:19.203Z,53.41
2018-07-28T09:12:48.356Z,52.70
2018-07-28T09:15:17.437Z,51.45
2018-07-28T09:17:46.639Z,52.37
2018-07-28T09:20:15.720Z,52.81
2018-07-28T09:22:44.796Z,54.16
2018-07-28T09:25:14.033Z,52.97
2018-07-28T09:27:43.156Z,51.84
2018-07-28T09:30:12.237Z,53.08
2018-07-28T09:32:41.429Z,52.11
2018-07-28T09:35:10.617Z,51.21
2018-07-28T09:37:46.156Z,50.18
2018-07-28T09:40:15.217Z,50.79
2018-07-28T09:42:44.478Z,49.58
2018-07-28T09:45:13.697Z,50.07
2018-07-28T09:47:42.827Z,51.27
2018-07-28T09:50:11.938Z,46.20
2018-07-28T09:52:41.145Z,48.72
2018-07-28T09:55:10.389Z,47.20
2018-07-28T09:57:39.519Z,46.50
2018-07-28T10:00:08.937Z,44.99
2018-07-28T10:02:38.147Z,41.73
2018-07-28T10:05:07.475Z,41.97
2018-07-28T10:07:36.586Z,42.65
2018-07-28T10:10:05.757Z,42.23
2018-07-28T10:12:34.909Z,43.31
2018-07-28T10:15:04.165Z,44.50
2018-07-28T10:17:33.471Z,41.48
2018-07-28T10:20:02.755Z,41.65
2018-07-28T10:22:31.913Z,42.01
2018-07-28T10:25:01.149Z,44.19
2018-07-28T10:27:30.228Z,42.41
2018-07-28T10:29:59.374Z,46.88
2018-07-28T10:32:28.492Z,43.74
2018-07-28T10:34:57.692Z,43.18
2018-07-28T10:37:26.834Z,42.69
2018-07-28T10:39:56.005Z,40.34
2018-07-28T10:42:25.206Z,43.71
2018-07-28T10:44:54.476Z,43.50
2018-07-28T10:47:24.083Z,41.48
2018-07-28T10:49:53.282Z,42.05
2018-07-28T10:52:22.438Z,42.93
2018-07-28T10:54:52.244Z,43.85
2018-07-28T10:57:23.695Z,44.39
2018-07-28T10:59:53.361Z,43.78
2018-07-28T11:02:22.836Z,45.13
2018-07-28T11:04:52.056Z,44.58
2018-07-28T11:07:21.248Z,44.44
2018-07-28T11:09:50.461Z,46.23
2018-07-28T11:12:19.700Z,45.35
2018-07-28T11:14:48.990Z,45.81
2018-07-28T11:17:18.132Z,44.53
2018-07-28T11:19:47.324Z,43.35
2018-07-28T11:22:16.524Z,42.84
2018-07-28T11:24:45.700Z,41.59
2018-07-28T11:27:14.826Z,41.47
2018-07-28T11:29:43.925Z,40.86
2018-07-28T11:32:24.570Z,42.96
2018-07-28T11:35:04.981Z,42.31
2018-07-28T11:38:43.221Z,41.79
2018-07-28T11:42:24.378Z,42.98
2018-07-28T11:45:02.726Z,43.63
2018-07-28T11:47:31.901Z,42.30
2018-07-28T11:50:01.265Z,43.10
2018-07-28T11:52:30.540Z,43.17
2018-07-28T11:54:59.759Z,41.37
2018-07-28T11:57:28.959Z,42.50
2018-07-28T11:59:58.141Z,42.39
2018-07-28T12:02:27.351Z,42.86
2018-07-28T12:04:56.561Z,43.55
2018-07-28T12:07:25.630Z,42.56
2018-07-28T12:09:54.876Z,42.99
2018-07-28T12:12:24.153Z,44.58
2018-07-28T12:14:53.376Z,45.09
2018-07-28T12:17:22.534Z,43.95
2018-07-28T12:19:51.658Z,42.81
2018-07-28T12:22:20.849Z,41.90
2018-07-28T12:24:50.062Z,42.09
2018-07-28T12:27:19.214Z,42.92
2018-07-28T12:29:48.340Z,40.79
2018-07-28T12:32:17.524Z,40.15
2018-07-28T12:34:46.767Z,41.92
2018-07-28T12:37:15.913Z,40.17
2018-07-28T12:39:45.097Z,39.61
2018-07-28T12:42:14.338Z,40.42
2018-07-28T12:44:43.506Z,41.15
2018-07-28T12:47:12.804Z,41.38
2018-07-28T12:49:41.913Z,41.41
2018-07-28T12:52:11.091Z,42.18
2018-07-28T12:54:40.175Z,43.38
2018-07-28T12:57:09.441Z,42.76
2018-07-28T12:59:38.585Z,42.99
2018-07-28T13:02:07.808Z,43.17
2018-07-28T13:04:36.985Z,44.78
2018-07-28T13:07:06.082Z,45.91
2018-07-28T13:09:35.276Z,44.30
2018-07-28T13:12:04.576Z,42.60
2018-07-28T13:14:33.645Z,42.49
2018-07-28T13:17:02.775Z,42.50
2018-07-28T13:19:32.173Z,40.25
2018-07-28T13:22:01.265Z,39.29
2018-07-28T13:24:30.439Z,40.66
2018-07-28T13:26:59.540Z,42.30
2018-07-28T13:29:28.650Z,41.42
2018-07-28T13:31:57.878Z,42.82
2018-07-28T13:34:27.142Z,40.84
2018-07-28T13:36:56.241Z,41.46
2018-07-28T13:39:25.644Z,41.74
2018-07-28T13:41:54.762Z,41.80
2018-07-28T13:44:23.978Z,41.37
2018-07-28T13:46:53.136Z,42.10
2018-07-28T13:49:22.447Z,41.72
2018-07-28T13:51:51.566Z,39.25
2018-07-28T13:54:20.628Z,39.93
2018-07-28T13:56:49.818Z,39.04
2018-07-28T13:59:19.112Z,39.67
2018-07-28T14:01:48.418Z,39.64
2018-07-28T14:04:17.548Z,41.76
2018-07-28T14:06:46.669Z,40.20
2018-07-28T14:09:16.010Z,37.98
2018-07-28T14:11:45.165Z,37.68
2018-07-28T14:14:14.413Z,37.45
2018-07-28T14:16:43.531Z,37.69
2018-07-28T14:19:12.661Z,40.37
2018-07-28T14:21:42.158Z,40.08
2018-07-28T14:24:11.275Z,40.84
2018-07-28T14:26:40.497Z,37.66
2018-07-28T14:29:09.733Z,39.96
2018-07-28T14:31:38.870Z,37.69
2018-07-28T14:34:08.042Z,36.26
2018-07-28T14:36:37.229Z,38.13
2018-07-28T14:39:08.226Z,37.50
2018-07-28T14:41:37.703Z,34.38
2018-07-28T14:44:06.856Z,34.97
2018-07-28T14:46:35.950Z,35.46
2018-07-28T14:49:05.335Z,34.27
2018-07-28T14:51:34.548Z,34.80
2018-07-28T14:54:03.682Z,31.98
2018-07-28T14:56:32.777Z,32.77
2018-07-28T14:59:01.906Z,32.38
2018-07-28T15:01:31.166Z,33.24
2018-07-28T15:04:00.273Z,32.25
2018-07-28T15:06:29.425Z,32.79
2018-07-28T15:08:58.608Z,34.43
2018-07-28T15:11:27.870Z,33.38
2018-07-28T15:13:57.057Z,36.45
2018-07-28T15:16:26.211Z,35.28
2018-07-28T15:18:55.293Z,36.11
2018-07-28T15:21:24.687Z,34.89
2018-07-28T15:23:53.883Z,35.15
2018-07-28T15:26:22.989Z,34.99
2018-07-28T15:28:52.230Z,36.47
2018-07-28T15:31:22.255Z,35.66
2018-07-28T15:33:51.407Z,37.28
2018-07-28T15:36:20.592Z,38.91
2018-07-28T15:38:50.012Z,38.99
2018-07-28T15:41:19.290Z,39.06
2018-07-28T15:43:48.392Z,38.87
2018-07-28T15:46:17.658Z,40.12
2018-07-28T15:48:46.788Z,39.52
2018-07-28T15:51:15.922Z,40.81
2018-07-28T15:53:45.172Z,41.14
2018-07-28T15:56:14.280Z,42.54
2018-07-28T15:58:43.649Z,40.57
2018-07-28T16:01:12.894Z,40.19
2018-07-28T16:03:42.065Z,38.78
2018-07-28T16:06:11.289Z,39.47
2018-07-28T16:08:40.449Z,39.60
2018-07-28T16:11:09.565Z,39.41
2018-07-28T16:13:38.954Z,38.51
2018-07-28T16:16:08.259Z,40.41
2018-07-28T16:18:37.345Z,40.68
2018-07-28T16:21:06.489Z,40.22
2018-07-28T16:23:35.841Z,39.57
2018-07-28T16:26:05.366Z,40.11
2018-07-28T16:28:34.457Z,39.24
2018-07-28T16:31:03.633Z,39.56
2018-07-28T16:33:33.017Z,39.59
2018-07-28T16:36:02.134Z,39.41
2018-07-28T16:38:31.238Z,40.15
2018-07-28T16:41:00.503Z,40.83
2018-07-28T16:43:29.598Z,40.63
2018-07-28T16:45:59.144Z,42.08
2018-07-28T16:48:28.332Z,41.80
2018-07-28T16:50:57.484Z,42.65
2018-07-28T16:53:26.657Z,42.57
2018-07-28T16:55:55.849Z,42.33
2018-07-28T16:58:24.930Z,43.10
2018-07-28T17:00:54.034Z,43.52
2018-07-28T17:03:23.204Z,42.90
2018-07-28T17:05:52.324Z,43.56
2018-07-28T17:08:21.397Z,43.71
2018-07-28T17:10:50.584Z,44.71
2018-07-28T17:13:19.744Z,44.49
2018-07-28T17:15:48.888Z,44.97
2018-07-28T17:18:17.972Z,44.80
2018-07-28T17:20:47.097Z,44.74
2018-07-28T17:23:16.305Z,45.19
2018-07-28T17:25:45.484Z,45.73
2018-07-28T17:28:14.537Z,45.39
2018-07-28T17:30:43.691Z,45.81
2018-07-28T17:33:12.880Z,46.14
2018-07-28T17:35:41.981Z,45.67
2018-07-28T17:38:11.173Z,45.83
2018-07-28T17:40:46.616Z,46.08
2018-07-28T17:43:15.766Z,46.22
2018-07-28T17:45:44.836Z,46.22
2018-07-28T17:48:13.996Z,46.66
2018-07-28T17:50:43.056Z,46.76
2018-07-28T17:53:12.165Z,46.71
2018-07-28T17:55:41.413Z,47.22
2018-07-28T17:58:10.494Z,47.04
2018-07-28T18:00:39.596Z,46.78
2018-07-28T18:03:08.706Z,46.98
2018-07-28T18:05:37.930Z,46.91
2018-07-28T18:08:07.025Z,47.02
2018-07-28T18:10:36.177Z,47.02
2018-07-28T18:13:05.410Z,47.27
2018-07-28T18:15:35.390Z,47.61
2018-07-28T18:18:04.712Z,47.61
2018-07-28T18:20:33.771Z,47.98
2018-07-28T18:23:02.938Z,48.12
2018-07-28T18:25:32.473Z,48.42
2018-07-28T18:28:01.606Z,48.24
2018-07-28T18:30:30.712Z,48.00
2018-07-28T18:32:59.826Z,48.34
2018-07-28T18:35:28.947Z,48.23
2018-07-28T18:37:58.126Z,49.34
2018-07-28T18:40:27.246Z,48.46
2018-07-28T18:42:56.325Z,48.43
2018-07-28T18:45:25.461Z,48.53
2018-07-28T18:47:54.537Z,48.98
2018-07-28T18:50:23.833Z,48.65
2018-07-28T18:52:52.941Z,49.06
2018-07-28T18:55:22.044Z,49.57
2018-07-28T18:57:51.426Z,48.66
2018-07-28T19:00:20.564Z,49.65
2018-07-28T19:02:49.634Z,49.26
2018-07-28T19:05:18.706Z,49.74
2018-07-28T19:07:47.860Z,49.86
2018-07-28T19:10:17.104Z,49.74
2018-07-28T19:12:51.602Z,49.98
2018-07-28T19:15:20.759Z,49.83
2018-07-28T19:17:55.231Z,50.63
2018-07-28T19:20:24.462Z,50.32
2018-07-28T19:22:58.672Z,50.28
2018-07-28T19:25:27.792Z,50.83
2018-07-28T19:28:02.304Z,50.40
2018-07-28T19:30:31.453Z,50.42
2018-07-28T19:33:00.590Z,51.21
2018-07-28T19:35:34.988Z,51.54
2018-07-28T19:38:04.080Z,50.82
2018-07-28T19:40:33.199Z,51.01
2018-07-28T19:43:02.316Z,51.35
2018-07-28T19:45:31.418Z,51.51
2018-07-28T19:48:00.666Z,51.72
2018-07-28T19:50:29.958Z,52.05
2018-07-28T19:52:59.045Z,52.29
2018-07-28T19:55:28.150Z,52.51
2018-07-28T19:57:57.248Z,52.19
2018-07-28T20:00:26.461Z,52.83
2018-07-28T20:02:55.567Z,52.32
2018-07-28T20:05:24.997Z,53.12
2018-07-28T20:07:54.129Z,53.06
2018-07-28T20:10:23.357Z,53.13
2018-07-28T20:12:52.571Z,53.89
2018-07-28T20:15:21.629Z,53.45
2018-07-28T20:17:50.793Z,52.94
2018-07-28T20:20:19.936Z,53.85
2018-07-28T20:22:49.141Z,54.20
2018-07-28T20:25:18.297Z,54.11
2018-07-28T20:27:47.403Z,54.00
2018-07-28T20:30:16.530Z,54.20
2018-07-28T20:32:45.630Z,54.17
2018-07-28T20:35:14.804Z,55.25
2018-07-28T20:37:44.008Z,55.10
2018-07-28T20:40:13.111Z,54.79
2018-07-28T20:42:42.333Z,55.40
2018-07-28T20:45:11.441Z,54.90
2018-07-28T20:47:40.637Z,54.97
2018-07-28T20:50:09.780Z,54.88
2018-07-28T20:52:38.948Z,55.18
2018-07-28T20:55:08.060Z,55.04
2018-07-28T20:57:37.148Z,54.83
2018-07-28T21:00:06.409Z,55.46
2018-07-28T21:02:35.690Z,55.36
2018-07-28T21:05:05.078Z,55.24
2018-07-28T21:07:34.928Z,54.95
2018-07-28T21:10:04.255Z,54.80
2018-07-28T21:12:34.417Z,54.78
2018-07-28T21:15:04.465Z,55.19
2018-07-28T21:17:33.681Z,54.41
2018-07-28T21:20:03.353Z,55.30
2018-07-28T21:22:32.528Z,55.79
2018-07-28T21:25:02.259Z,55.20
2018-07-28T21:27:31.916Z,54.63
2018-07-28T21:30:01.361Z,54.81
2018-07-28T21:32:30.705Z,54.37
2018-07-28T21:35:00.472Z,54.27
2018-07-28T21:37:29.652Z,54.61
2018-07-28T21:40:00.099Z,54.52
2018-07-28T21:42:29.282Z,54.92
2018-07-28T21:44:58.454Z,54.61
2018-07-28T21:47:27.694Z,54.85
2018-07-28T21:49:56.916Z,55.33
2018-07-28T21:52:27.362Z,55.51
2018-07-28T21:54:57.392Z,55.27
2018-07-28T21:57:26.508Z,55.44
2018-07-28T21:59:55.942Z,55.11
2018-07-28T22:02:25.072Z,55.50
2018-07-28T22:04:54.935Z,54.85
2018-07-28T22:07:24.090Z,55.35
2018-07-28T22:09:53.305Z,55.13
2018-07-28T22:12:22.400Z,55.14
2018-07-28T22:14:52.835Z,55.25
2018-07-28T22:17:23.196Z,55.36
2018-07-28T22:19:52.414Z,54.80
2018-07-28T22:22:21.596Z,55.56
2018-07-28T22:24:51.817Z,55.77
2018-07-28T22:27:21.072Z,55.60
2018-07-28T22:29:50.897Z,55.83
2018-07-28T22:32:20.311Z,55.99
2018-07-28T22:34:50.042Z,55.50
2018-07-28T22:37:19.262Z,55.49
2018-07-28T22:39:48.557Z,55.59
2018-07-28T22:42:17.801Z,55.92
2018-07-28T22:44:46.953Z,55.56
2018-07-28T22:47:16.051Z,56.16
2018-07-28T22:49:45.301Z,55.04
2018-07-28T22:52:14.479Z,55.01
2018-07-28T22:54:43.973Z,55.08
2018-07-28T22:57:13.223Z,55.31
2018-07-28T22:59:42.337Z,55.37
2018-07-28T23:02:12.042Z,55.03
2018-07-28T23:04:41.283Z,54.96
2018-07-28T23:07:11.237Z,55.54
2018-07-28T23:09:47.324Z,55.28
2018-07-28T23:12:17.120Z,54.89
2018-07-28T23:14:48.163Z,54.46
2018-07-28T23:17:18.965Z,54.76
2018-07-28T23:19:49.733Z,54.49
2018-07-28T23:22:19.493Z,55.62
2018-07-28T23:24:50.379Z,54.93
2018-07-28T23:27:20.453Z,56.26
2018-07-28T23:29:49.769Z,55.66
2018-07-28T23:32:19.337Z,55.42
2018-07-28T23:34:48.585Z,56.11
2018-07-28T23:37:19.711Z,56.25
2018-07-28T23:39:48.957Z,55.60
2018-07-28T23:42:18.873Z,55.89
2018-07-28T23:44:48.133Z,56.02
2018-07-28T23:47:18.297Z,56.14
2018-07-28T23:49:47.597Z,56.15
2018-07-28T23:52:18.972Z,56.63
2018-07-28T23:54:48.749Z,56.65
2018-07-28T23:57:19.252Z,56.83
2018-07-28T23:59:49.568Z,56.97
